createdAt,value
2023-01-23T00:00:27.185Z,1019.77
2023-01-23T00:01:27.216Z,1019.83
2023-01-23T00:02:27.237Z,1019.79
2023-01-23T00:03:28.131Z,1019.75
2023-01-23T00:04:27.248Z,1019.88
2023-01-23T00:05:27.133Z,1019.79
2023-01-23T00:06:27.143Z,1019.80
2023-01-23T00:07:27.076Z,1019.83
2023-01-23T00:08:27.072Z,1019.83
2023-01-23T00:09:27.090Z,1019.85
2023-01-23T00:10:27.086Z,1019.88
2023-01-23T00:11:27.107Z,1019.81
2023-01-23T00:12:27.146Z,1019.79
2023-01-23T00:13:27.049Z,1019.81
2023-01-23T00:14:27.023Z,1019.87
2023-01-23T00:15:27.069Z,1019.89
2023-01-23T00:16:26.981Z,1019.79
2023-01-23T00:17:26.981Z,1019.75
2023-01-23T00:18:26.979Z,1019.80
2023-01-23T00:19:26.952Z,1019.86
2023-01-23T00:20:26.937Z,1019.88
2023-01-23T00:21:27.958Z,1019.84
2023-01-23T00:22:26.923Z,1019.80
2023-01-23T00:23:26.918Z,1019.81
2023-01-23T00:24:27.908Z,1019.80
2023-01-23T00:25:26.901Z,1019.87
2023-01-23T00:26:26.913Z,1019.83
2023-01-23T00:27:26.899Z,1019.87
2023-01-23T00:28:27.964Z,1019.84
2023-01-23T00:29:26.880Z,1019.88
2023-01-23T00:30:26.885Z,1019.88
2023-01-23T00:31:26.953Z,1019.85
2023-01-23T00:32:26.833Z,1019.89
2023-01-23T00:33:26.845Z,1019.92
2023-01-23T00:34:26.794Z,1019.94
2023-01-23T00:35:26.794Z,1019.96
2023-01-23T00:36:26.760Z,1019.94
2023-01-23T00:37:27.749Z,1020.02
2023-01-23T00:38:26.755Z,1019.95
2023-01-23T00:39:26.760Z,1019.97
2023-01-23T00:40:26.721Z,1020.00
2023-01-23T00:41:26.739Z,1019.94
2023-01-23T00:42:26.711Z,1019.89
2023-01-23T00:43:26.705Z,1019.89
2023-01-23T00:44:26.808Z,1019.90
2023-01-23T00:45:26.655Z,1019.90
2023-01-23T00:46:27.683Z,1019.96
2023-01-23T00:47:26.676Z,1019.97
2023-01-23T00:48:26.642Z,1019.98
2023-01-23T00:49:27.609Z,1019.99
2023-01-23T00:50:26.626Z,1019.99
2023-01-23T00:51:26.756Z,1019.97
2023-01-23T00:52:26.597Z,1019.97
2023-01-23T00:53:26.616Z,1020.02
2023-01-23T00:54:26.575Z,1019.95
2023-01-23T00:55:26.616Z,1020.00
2023-01-23T00:56:26.572Z,1019.96
2023-01-23T00:57:26.539Z,1020.01
2023-01-23T00:58:26.549Z,1020.03
2023-01-23T00:59:26.505Z,1020.03
2023-01-23T01:00:26.614Z,1020.03
2023-01-23T01:01:26.574Z,1020.04
2023-01-23T01:02:26.510Z,1020.05
2023-01-23T01:03:27.453Z,1020.05
2023-01-23T01:04:26.483Z,1020.03
2023-01-23T01:05:26.445Z,1020.07
2023-01-23T01:06:27.432Z,1020.05
2023-01-23T01:07:27.413Z,1020.04
2023-01-23T01:08:26.415Z,1020.12
2023-01-23T01:09:26.416Z,1020.04
2023-01-23T01:10:26.414Z,1020.04
2023-01-23T01:11:26.376Z,1020.06
2023-01-23T01:12:26.370Z,1020.09
2023-01-23T01:13:26.350Z,1020.10
2023-01-23T01:14:26.335Z,1020.08
2023-01-23T01:15:26.353Z,1020.10
2023-01-23T01:16:26.889Z,1020.07
2023-01-23T01:17:26.313Z,1020.14
2023-01-23T01:18:26.305Z,1020.07
2023-01-23T01:19:26.313Z,1020.12
2023-01-23T01:20:26.277Z,1020.15
2023-01-23T01:21:26.303Z,1020.14
2023-01-23T01:22:27.278Z,1020.14
2023-01-23T01:23:26.259Z,1020.14
2023-01-23T01:24:26.238Z,1020.15
2023-01-23T01:25:26.239Z,1020.15
2023-01-23T01:26:26.256Z,1020.15
2023-01-23T01:27:26.222Z,1020.18
2023-01-23T01:28:27.248Z,1020.15
2023-01-23T01:29:27.191Z,1020.25
2023-01-23T01:30:27.168Z,1020.16
2023-01-23T01:31:26.313Z,1020.22
2023-01-23T01:32:26.293Z,1020.23
2023-01-23T01:33:26.180Z,1020.21
2023-01-23T01:34:26.148Z,1020.20
2023-01-23T01:35:26.125Z,1020.24
2023-01-23T01:36:27.143Z,1020.29
2023-01-23T01:37:26.103Z,1020.29
2023-01-23T01:38:27.080Z,1020.27
2023-01-23T01:39:26.084Z,1020.23
2023-01-23T01:40:27.065Z,1020.26
2023-01-23T01:41:26.047Z,1020.27
2023-01-23T01:42:26.099Z,1020.31
2023-01-23T01:43:26.057Z,1020.28
2023-01-23T01:44:26.023Z,1020.35
2023-01-23T01:45:26.013Z,1020.37
2023-01-23T01:46:26.066Z,1020.30
2023-01-23T01:47:25.986Z,1020.34
2023-01-23T01:48:26.120Z,1020.37
2023-01-23T01:49:25.987Z,1020.38
2023-01-23T01:50:25.955Z,1020.33
2023-01-23T01:51:26.055Z,1020.38
2023-01-23T01:52:25.924Z,1020.42
2023-01-23T01:53:25.921Z,1020.41
2023-01-23T01:54:25.912Z,1020.46
2023-01-23T01:55:26.913Z,1020.46
2023-01-23T01:56:26.918Z,1020.46
2023-01-23T01:57:25.897Z,1020.46
2023-01-23T01:58:25.852Z,1020.49
2023-01-23T01:59:26.857Z,1020.52
2023-01-23T02:00:25.847Z,1020.57
2023-01-23T02:01:25.833Z,1020.51
2023-01-23T02:02:25.822Z,1020.60
2023-01-23T02:03:26.826Z,1020.53
2023-01-23T02:04:25.929Z,1020.55
2023-01-23T02:05:25.798Z,1020.53
2023-01-23T02:06:25.777Z,1020.58
2023-01-23T02:07:26.750Z,1020.52
2023-01-23T02:08:25.789Z,1020.56
2023-01-23T02:09:25.772Z,1020.54
2023-01-23T02:10:25.730Z,1020.69
2023-01-23T02:11:25.741Z,1020.67
2023-01-23T02:12:26.741Z,1020.66
2023-01-23T02:13:25.708Z,1020.64
2023-01-23T02:14:25.736Z,1020.65
2023-01-23T02:15:25.700Z,1020.70
2023-01-23T02:16:26.707Z,1020.69
2023-01-23T02:17:25.657Z,1020.69
2023-01-23T02:18:26.656Z,1020.65
2023-01-23T02:19:25.639Z,1020.69
2023-01-23T02:20:26.764Z,1020.64
2023-01-23T02:21:25.664Z,1020.70
2023-01-23T02:22:25.608Z,1020.73
2023-01-23T02:23:25.603Z,1020.66
2023-01-23T02:24:25.567Z,1020.72
2023-01-23T02:25:25.572Z,1020.71
2023-01-23T02:26:26.565Z,1020.67
2023-01-23T02:27:26.548Z,1020.73
2023-01-23T02:28:25.685Z,1020.73
2023-01-23T02:29:25.536Z,1020.74
2023-01-23T02:30:25.503Z,1020.73
2023-01-23T02:31:25.586Z,1020.70
2023-01-23T02:32:25.504Z,1020.67
2023-01-23T02:33:25.516Z,1020.66
2023-01-23T02:34:25.497Z,1020.64
2023-01-23T02:35:25.474Z,1020.69
2023-01-23T02:36:25.559Z,1020.68
2023-01-23T02:37:25.451Z,1020.65
2023-01-23T02:38:26.440Z,1020.66
2023-01-23T02:39:25.404Z,1020.74
2023-01-23T02:40:25.389Z,1020.74
2023-01-23T02:41:25.436Z,1020.73
2023-01-23T02:42:25.402Z,1020.71
2023-01-23T02:43:26.360Z,1020.73
2023-01-23T02:44:25.402Z,1020.73
2023-01-23T02:45:25.360Z,1020.78
2023-01-23T02:46:25.341Z,1020.73
2023-01-23T02:47:25.327Z,1020.71
2023-01-23T02:48:25.322Z,1020.71
2023-01-23T02:49:25.316Z,1020.73
2023-01-23T02:50:25.326Z,1020.73
2023-01-23T02:51:25.352Z,1020.73
2023-01-23T02:52:25.390Z,1020.69
2023-01-23T02:53:25.267Z,1020.74
2023-01-23T02:54:25.288Z,1020.75
2023-01-23T02:55:26.302Z,1020.76
2023-01-23T02:56:25.218Z,1020.72
2023-01-23T02:57:25.267Z,1020.72
2023-01-23T02:58:25.199Z,1020.79
2023-01-23T02:59:25.193Z,1020.78
2023-01-23T03:00:25.196Z,1020.82
2023-01-23T03:01:25.191Z,1020.74
2023-01-23T03:02:25.326Z,1020.75
2023-01-23T03:03:25.211Z,1020.85
2023-01-23T03:04:25.138Z,1020.76
2023-01-23T03:05:25.133Z,1020.86
2023-01-23T03:06:25.138Z,1020.84
2023-01-23T03:07:26.172Z,1020.81
2023-01-23T03:08:25.253Z,1020.78
2023-01-23T03:09:25.081Z,1020.76
2023-01-23T03:10:26.077Z,1020.79
2023-01-23T03:11:25.060Z,1020.80
2023-01-23T03:12:25.081Z,1020.85
2023-01-23T03:13:25.026Z,1020.81
2023-01-23T03:14:25.039Z,1020.80
2023-01-23T03:15:26.029Z,1020.80
2023-01-23T03:16:25.020Z,1020.79
2023-01-23T03:17:25.027Z,1020.78
2023-01-23T03:18:25.983Z,1020.80
2023-01-23T03:19:26.037Z,1020.80
2023-01-23T03:20:24.956Z,1020.80
2023-01-23T03:21:24.973Z,1020.74
2023-01-23T03:22:24.939Z,1020.82
2023-01-23T03:23:24.925Z,1020.83
2023-01-23T03:24:25.075Z,1020.87
2023-01-23T03:25:24.935Z,1020.81
2023-01-23T03:26:24.893Z,1020.77
2023-01-23T03:27:24.903Z,1020.77
2023-01-23T03:28:24.859Z,1020.79
2023-01-23T03:29:24.870Z,1020.87
2023-01-23T03:30:24.839Z,1020.88
2023-01-23T03:31:25.879Z,1020.86
2023-01-23T03:32:25.856Z,1020.85
2023-01-23T03:33:24.815Z,1020.85
2023-01-23T03:34:24.816Z,1020.87
2023-01-23T03:35:24.790Z,1020.88
2023-01-23T03:36:24.798Z,1020.79
2023-01-23T03:37:24.789Z,1020.88
2023-01-23T03:38:24.768Z,1020.96
2023-01-23T03:39:25.794Z,1020.90
2023-01-23T03:40:25.839Z,1020.91
2023-01-23T03:41:24.727Z,1020.96
2023-01-23T03:42:24.751Z,1020.94
2023-01-23T03:43:24.701Z,1021.06
2023-01-23T03:44:24.686Z,1020.98
2023-01-23T03:45:25.718Z,1020.96
2023-01-23T03:46:25.661Z,1020.98
2023-01-23T03:47:24.684Z,1021.02
2023-01-23T03:48:24.645Z,1021.00
2023-01-23T03:49:24.671Z,1021.04
2023-01-23T03:50:25.651Z,1021.08
2023-01-23T03:51:24.711Z,1021.08
2023-01-23T03:52:24.611Z,1021.11
2023-01-23T03:53:24.596Z,1021.13
2023-01-23T03:54:24.590Z,1021.10
2023-01-23T03:55:24.581Z,1021.09
2023-01-23T03:56:24.690Z,1021.11
2023-01-23T03:57:24.545Z,1021.14
2023-01-23T03:58:24.570Z,1021.08
2023-01-23T03:59:26.130Z,1021.04
2023-01-23T04:00:24.524Z,1021.07
2023-01-23T04:01:24.560Z,1021.04
2023-01-23T04:02:24.538Z,1021.05
2023-01-23T04:03:25.499Z,1021.08
2023-01-23T04:04:25.475Z,1021.11
2023-01-23T04:05:25.489Z,1021.10
2023-01-23T04:06:24.443Z,1021.02
2023-01-23T04:07:24.468Z,1021.03
2023-01-23T04:08:25.458Z,1021.05
2023-01-23T04:09:24.431Z,1021.04
2023-01-23T04:10:25.485Z,1021.09
2023-01-23T04:11:24.400Z,1021.10
2023-01-23T04:12:24.503Z,1021.07
2023-01-23T04:13:24.387Z,1021.08
2023-01-23T04:14:24.395Z,1021.14
2023-01-23T04:15:24.382Z,1021.11
2023-01-23T04:16:24.423Z,1021.10
2023-01-23T04:17:25.344Z,1021.07
2023-01-23T04:18:24.322Z,1021.16
2023-01-23T04:19:24.313Z,1021.13
2023-01-23T04:20:24.326Z,1021.03
2023-01-23T04:21:25.349Z,1021.09
2023-01-23T04:22:25.305Z,1021.04
2023-01-23T04:23:24.256Z,1021.10
2023-01-23T04:24:24.260Z,1021.07
2023-01-23T04:25:24.257Z,1021.01
2023-01-23T04:26:25.256Z,1021.00
2023-01-23T04:27:24.245Z,1021.02
2023-01-23T04:28:24.341Z,1021.00
2023-01-23T04:29:24.247Z,1021.02
2023-01-23T04:30:25.286Z,1021.03
2023-01-23T04:31:24.282Z,1021.00
2023-01-23T04:32:24.162Z,1021.09
2023-01-23T04:33:24.161Z,1021.03
2023-01-23T04:34:24.171Z,1021.07
2023-01-23T04:35:24.188Z,1020.99
2023-01-23T04:36:24.131Z,1020.99
2023-01-23T04:37:24.129Z,1020.99
2023-01-23T04:38:24.095Z,1020.95
2023-01-23T04:39:24.118Z,1021.01
2023-01-23T04:40:24.108Z,1020.95
2023-01-23T04:41:24.130Z,1020.98
2023-01-23T04:42:24.084Z,1020.99
2023-01-23T04:43:24.075Z,1021.02
2023-01-23T04:44:24.139Z,1021.02
2023-01-23T04:45:24.046Z,1020.94
2023-01-23T04:46:24.268Z,1021.05
2023-01-23T04:47:24.074Z,1021.03
2023-01-23T04:48:23.997Z,1020.99
2023-01-23T04:49:24.978Z,1021.09
2023-01-23T04:50:23.965Z,1021.13
2023-01-23T04:51:24.075Z,1021.15
2023-01-23T04:52:24.024Z,1021.18
2023-01-23T04:53:23.931Z,1021.21
2023-01-23T04:54:23.922Z,1021.22
2023-01-23T04:55:23.908Z,1021.21
2023-01-23T04:56:24.921Z,1021.25
2023-01-23T04:57:23.903Z,1021.20
2023-01-23T04:58:23.913Z,1021.25
2023-01-23T04:59:23.906Z,1021.25
2023-01-23T05:00:24.009Z,1021.27
2023-01-23T05:01:23.903Z,1021.30
2023-01-23T05:02:23.947Z,1021.35
2023-01-23T05:03:23.850Z,1021.34
2023-01-23T05:04:23.810Z,1021.41
2023-01-23T05:05:24.830Z,1021.44
2023-01-23T05:06:23.812Z,1021.46
2023-01-23T05:07:23.805Z,1021.48
2023-01-23T05:08:23.801Z,1021.55
2023-01-23T05:09:23.789Z,1021.52
2023-01-23T05:10:23.746Z,1021.58
2023-01-23T05:11:23.762Z,1021.57
2023-01-23T05:12:23.746Z,1021.62
2023-01-23T05:13:24.742Z,1021.62
2023-01-23T05:14:23.718Z,1021.57
2023-01-23T05:15:23.745Z,1021.59
2023-01-23T05:16:23.807Z,1021.60
2023-01-23T05:17:23.688Z,1021.55
2023-01-23T05:18:23.696Z,1021.58
2023-01-23T05:19:23.644Z,1021.52
2023-01-23T05:20:23.653Z,1021.54
2023-01-23T05:21:23.649Z,1021.55
2023-01-23T05:22:24.644Z,1021.47
2023-01-23T05:23:23.646Z,1021.49
2023-01-23T05:24:24.602Z,1021.51
2023-01-23T05:25:24.603Z,1021.51
2023-01-23T05:26:23.621Z,1021.50
2023-01-23T05:27:23.594Z,1021.53
2023-01-23T05:28:23.604Z,1021.52
2023-01-23T05:29:23.543Z,1021.53
2023-01-23T05:30:23.539Z,1021.58
2023-01-23T05:31:23.635Z,1021.61
2023-01-23T05:32:23.635Z,1021.68
2023-01-23T05:33:23.530Z,1021.62
2023-01-23T05:34:23.565Z,1021.63
2023-01-23T05:35:23.469Z,1021.68
2023-01-23T05:36:23.491Z,1021.67
2023-01-23T05:37:23.458Z,1021.65
2023-01-23T05:38:23.448Z,1021.73
2023-01-23T05:39:23.465Z,1021.69
2023-01-23T05:40:23.419Z,1021.64
2023-01-23T05:41:25.577Z,1021.67
2023-01-23T05:42:23.384Z,1021.74
2023-01-23T05:43:23.393Z,1021.72
2023-01-23T05:44:23.392Z,1021.76
2023-01-23T05:45:24.370Z,1021.81
2023-01-23T05:46:23.427Z,1021.73
2023-01-23T05:47:23.372Z,1021.71
2023-01-23T05:48:23.486Z,1021.77
2023-01-23T05:49:23.332Z,1021.69
2023-01-23T05:50:23.326Z,1021.66
2023-01-23T05:51:23.596Z,1021.65
2023-01-23T05:52:23.310Z,1021.65
2023-01-23T05:53:23.300Z,1021.67
2023-01-23T05:54:23.267Z,1021.64
2023-01-23T05:55:23.272Z,1021.72
2023-01-23T05:56:23.278Z,1021.66
2023-01-23T05:57:23.237Z,1021.61
2023-01-23T05:58:23.292Z,1021.73
2023-01-23T05:59:24.234Z,1021.63
2023-01-23T06:00:23.200Z,1021.63
2023-01-23T06:01:23.236Z,1021.74
2023-01-23T06:02:23.238Z,1021.73
2023-01-23T06:03:23.194Z,1021.69
2023-01-23T06:04:23.299Z,1021.75
2023-01-23T06:05:23.132Z,1021.76
2023-01-23T06:06:23.163Z,1021.80
2023-01-23T06:07:23.138Z,1021.80
2023-01-23T06:08:23.111Z,1021.77
2023-01-23T06:09:23.096Z,1021.72
2023-01-23T06:10:23.101Z,1021.71
2023-01-23T06:11:24.087Z,1021.75
2023-01-23T06:12:23.070Z,1021.77
2023-01-23T06:13:23.082Z,1021.77
2023-01-23T06:14:24.098Z,1021.74
2023-01-23T06:15:24.060Z,1021.76
2023-01-23T06:16:23.039Z,1021.82
2023-01-23T06:17:22.998Z,1021.85
2023-01-23T06:18:23.045Z,1021.80
2023-01-23T06:19:23.995Z,1021.89
2023-01-23T06:20:23.103Z,1021.90
2023-01-23T06:21:22.990Z,1021.84
2023-01-23T06:22:22.968Z,1021.89
2023-01-23T06:23:22.965Z,1021.99
2023-01-23T06:24:22.941Z,1021.91
2023-01-23T06:25:22.929Z,1021.96
2023-01-23T06:26:22.901Z,1021.95
2023-01-23T06:27:23.941Z,1021.93
2023-01-23T06:28:22.896Z,1021.95
2023-01-23T06:29:23.887Z,1021.94
2023-01-23T06:30:23.062Z,1021.93
2023-01-23T06:31:23.060Z,1021.96
2023-01-23T06:32:22.838Z,1022.05
2023-01-23T06:33:23.857Z,1022.01
2023-01-23T06:34:22.823Z,1022.11
2023-01-23T06:35:22.938Z,1022.12
2023-01-23T06:36:22.935Z,1022.10
2023-01-23T06:37:22.779Z,1022.11
2023-01-23T06:38:22.787Z,1022.19
2023-01-23T06:39:22.836Z,1022.08
2023-01-23T06:40:22.871Z,1022.15
2023-01-23T06:41:22.774Z,1022.19
2023-01-23T06:42:22.763Z,1022.07
2023-01-23T06:43:22.822Z,1022.14
2023-01-23T06:44:22.724Z,1022.18
2023-01-23T06:45:23.705Z,1022.17
2023-01-23T06:46:22.728Z,1022.15
2023-01-23T06:47:22.703Z,1022.22
2023-01-23T06:48:22.655Z,1022.19
2023-01-23T06:49:22.706Z,1022.18
2023-01-23T06:50:23.068Z,1022.13
2023-01-23T06:51:22.721Z,1022.23
2023-01-23T06:52:23.761Z,1022.16
2023-01-23T06:53:22.633Z,1022.26
2023-01-23T06:54:22.633Z,1022.25
2023-01-23T06:55:22.629Z,1022.21
2023-01-23T06:56:22.584Z,1022.26
2023-01-23T06:57:22.594Z,1022.25
2023-01-23T06:58:22.566Z,1022.22
2023-01-23T06:59:22.584Z,1022.27
2023-01-23T07:00:22.883Z,1022.27
2023-01-23T07:01:22.576Z,1022.28
2023-01-23T07:02:22.506Z,1022.20
2023-01-23T07:03:22.530Z,1022.19
2023-01-23T07:04:22.509Z,1022.20
2023-01-23T07:05:22.523Z,1022.21
2023-01-23T07:06:22.475Z,1022.26
2023-01-23T07:07:22.450Z,1022.21
2023-01-23T07:08:22.570Z,1022.31
2023-01-23T07:09:22.462Z,1022.27
2023-01-23T07:10:22.596Z,1022.28
2023-01-23T07:11:22.420Z,1022.32
2023-01-23T07:12:22.409Z,1022.36
2023-01-23T07:13:22.395Z,1022.37
2023-01-23T07:14:22.408Z,1022.33
2023-01-23T07:15:22.375Z,1022.45
2023-01-23T07:16:22.451Z,1022.52
2023-01-23T07:17:22.386Z,1022.51
2023-01-23T07:18:22.341Z,1022.48
2023-01-23T07:19:23.322Z,1022.51
2023-01-23T07:20:22.743Z,1022.52
2023-01-23T07:21:22.334Z,1022.51
2023-01-23T07:22:22.305Z,1022.48
2023-01-23T07:23:22.297Z,1022.60
2023-01-23T07:24:22.393Z,1022.57
2023-01-23T07:25:22.265Z,1022.66
2023-01-23T07:26:22.274Z,1022.63
2023-01-23T07:27:22.257Z,1022.67
2023-01-23T07:28:22.234Z,1022.63
2023-01-23T07:29:22.246Z,1022.71
2023-01-23T07:30:22.529Z,1022.75
2023-01-23T07:31:22.355Z,1022.67
2023-01-23T07:32:23.195Z,1022.71
2023-01-23T07:33:22.199Z,1022.77
2023-01-23T07:34:23.171Z,1022.74
2023-01-23T07:35:22.167Z,1022.75
2023-01-23T07:36:22.153Z,1022.74
2023-01-23T07:37:22.142Z,1022.78
2023-01-23T07:38:23.127Z,1022.77
2023-01-23T07:39:23.099Z,1022.86
2023-01-23T07:40:22.574Z,1022.80
2023-01-23T07:41:22.123Z,1022.79
2023-01-23T07:42:23.074Z,1022.85
2023-01-23T07:43:23.099Z,1022.81
2023-01-23T07:44:22.060Z,1022.85
2023-01-23T07:45:22.049Z,1022.83
2023-01-23T07:46:22.115Z,1022.82
2023-01-23T07:47:23.046Z,1022.89
2023-01-23T07:48:22.012Z,1022.89
2023-01-23T07:49:22.557Z,1022.86
2023-01-23T07:50:22.430Z,1022.93
2023-01-23T07:51:22.026Z,1022.91
2023-01-23T07:52:21.980Z,1022.91
2023-01-23T07:53:22.948Z,1022.96
2023-01-23T07:54:22.006Z,1023.01
2023-01-23T07:55:21.945Z,1023.00
2023-01-23T07:56:23.078Z,1023.04
2023-01-23T07:57:21.920Z,1023.04
2023-01-23T07:58:21.920Z,1022.98
2023-01-23T07:59:22.910Z,1023.05
2023-01-23T08:00:24.395Z,1023.13
2023-01-23T08:01:21.964Z,1023.17
2023-01-23T08:02:21.851Z,1023.17
2023-01-23T08:03:21.857Z,1023.14
2023-01-23T08:04:21.832Z,1023.14
2023-01-23T08:05:21.884Z,1023.15
2023-01-23T08:06:21.824Z,1023.16
2023-01-23T08:07:21.890Z,1023.16
2023-01-23T08:08:21.785Z,1023.16
2023-01-23T08:09:22.776Z,1023.14
2023-01-23T08:10:22.152Z,1023.16
2023-01-23T08:11:22.782Z,1023.08
2023-01-23T08:12:21.923Z,1023.10
2023-01-23T08:13:21.733Z,1023.15
2023-01-23T08:14:22.731Z,1023.11
2023-01-23T08:15:22.743Z,1023.12
2023-01-23T08:16:21.762Z,1023.12
2023-01-23T08:17:22.711Z,1023.12
2023-01-23T08:18:21.694Z,1023.13
2023-01-23T08:19:21.682Z,1023.16
2023-01-23T08:20:22.006Z,1023.20
2023-01-23T08:21:21.680Z,1023.12
2023-01-23T08:22:21.625Z,1023.11
2023-01-23T08:23:21.630Z,1023.10
2023-01-23T08:24:22.670Z,1023.09
2023-01-23T08:25:22.644Z,1023.16
2023-01-23T08:26:21.633Z,1023.20
2023-01-23T08:27:21.601Z,1023.17
2023-01-23T08:28:21.672Z,1023.23
2023-01-23T08:29:21.552Z,1023.28
2023-01-23T08:30:22.100Z,1023.32
2023-01-23T08:31:22.732Z,1023.31
2023-01-23T08:32:21.546Z,1023.28
2023-01-23T08:33:21.505Z,1023.32
2023-01-23T08:34:22.497Z,1023.30
2023-01-23T08:35:21.489Z,1023.30
2023-01-23T08:36:21.524Z,1023.40
2023-01-23T08:37:21.469Z,1023.35
2023-01-23T08:38:21.489Z,1023.38
2023-01-23T08:39:21.477Z,1023.36
2023-01-23T08:40:22.703Z,1023.40
2023-01-23T08:41:21.446Z,1023.35
2023-01-23T08:42:21.414Z,1023.43
2023-01-23T08:43:21.413Z,1023.36
2023-01-23T08:44:21.532Z,1023.36
2023-01-23T08:45:21.372Z,1023.36
2023-01-23T08:46:22.399Z,1023.35
2023-01-23T08:47:21.367Z,1023.37
2023-01-23T08:48:21.343Z,1023.36
2023-01-23T08:49:21.357Z,1023.39
2023-01-23T08:50:22.632Z,1023.44
2023-01-23T08:51:22.395Z,1023.39
2023-01-23T08:52:21.401Z,1023.45
2023-01-23T08:53:22.292Z,1023.36
2023-01-23T08:54:21.364Z,1023.38
2023-01-23T08:55:21.283Z,1023.40
2023-01-23T08:56:22.377Z,1023.34
2023-01-23T08:57:21.259Z,1023.43
2023-01-23T08:58:21.468Z,1023.44
2023-01-23T08:59:21.251Z,1023.41
2023-01-23T09:00:21.634Z,1023.50
2023-01-23T09:01:21.326Z,1023.47
2023-01-23T09:02:22.373Z,1023.46
2023-01-23T09:03:21.190Z,1023.55
2023-01-23T09:04:22.182Z,1023.56
2023-01-23T09:05:21.194Z,1023.45
2023-01-23T09:06:21.151Z,1023.45
2023-01-23T09:07:21.155Z,1023.47
2023-01-23T09:08:22.136Z,1023.52
2023-01-23T09:09:21.124Z,1023.52
2023-01-23T09:11:10.565Z,1023.60
2023-01-23T09:12:10.540Z,1023.59
2023-01-23T09:13:10.506Z,1023.55
2023-01-23T09:14:10.553Z,1023.56
2023-01-23T09:15:10.485Z,1023.51
2023-01-23T09:16:11.732Z,1023.57
2023-01-23T09:17:10.491Z,1023.62
2023-01-23T09:18:11.446Z,1023.65
2023-01-23T09:19:10.465Z,1023.63
2023-01-23T09:20:10.419Z,1023.59
2023-01-23T09:21:10.418Z,1023.62
2023-01-23T09:22:10.410Z,1023.55
2023-01-23T09:23:10.445Z,1023.56
2023-01-23T09:24:10.431Z,1023.54
2023-01-23T09:25:10.412Z,1023.57
2023-01-23T09:26:10.355Z,1023.48
2023-01-23T09:27:10.377Z,1023.58
2023-01-23T09:28:10.346Z,1023.52
2023-01-23T09:29:10.370Z,1023.59
2023-01-23T09:30:11.317Z,1023.57
2023-01-23T09:31:10.297Z,1023.57
2023-01-23T09:32:10.443Z,1023.57
2023-01-23T09:33:10.291Z,1023.54
2023-01-23T09:34:11.302Z,1023.56
2023-01-23T09:35:10.273Z,1023.55
2023-01-23T09:36:10.310Z,1023.60
2023-01-23T09:37:10.247Z,1023.53
2023-01-23T09:38:10.234Z,1023.59
2023-01-23T09:39:10.248Z,1023.56
2023-01-23T09:40:10.204Z,1023.61
2023-01-23T09:41:11.245Z,1023.60
2023-01-23T09:42:10.176Z,1023.65
2023-01-23T09:43:10.168Z,1023.61
2023-01-23T09:44:10.183Z,1023.57
2023-01-23T09:45:10.154Z,1023.66
2023-01-23T09:46:10.209Z,1023.61
2023-01-23T09:47:10.150Z,1023.62
2023-01-23T09:48:10.253Z,1023.55
2023-01-23T09:49:10.118Z,1023.62
2023-01-23T09:50:10.593Z,1023.61
2023-01-23T09:51:10.092Z,1023.65
2023-01-23T09:52:10.099Z,1023.67
2023-01-23T09:53:11.067Z,1023.68
2023-01-23T09:54:10.053Z,1023.65
2023-01-23T09:55:10.062Z,1023.59
2023-01-23T09:56:11.029Z,1023.59
2023-01-23T09:57:10.033Z,1023.65
2023-01-23T09:58:10.022Z,1023.61
2023-01-23T09:59:10.019Z,1023.70
2023-01-23T10:00:09.998Z,1023.62
2023-01-23T10:01:10.045Z,1023.58
2023-01-23T10:02:09.998Z,1023.58
2023-01-23T10:03:09.964Z,1023.64
2023-01-23T10:04:10.062Z,1023.55
2023-01-23T10:05:09.926Z,1023.61
2023-01-23T10:06:10.939Z,1023.60
2023-01-23T10:07:09.914Z,1023.56
2023-01-23T10:08:10.914Z,1023.57
2023-01-23T10:09:09.901Z,1023.53
2023-01-23T10:10:10.919Z,1023.55
2023-01-23T10:11:09.915Z,1023.46
2023-01-23T10:12:09.864Z,1023.56
2023-01-23T10:13:09.846Z,1023.52
2023-01-23T10:14:09.830Z,1023.55
2023-01-23T10:15:09.828Z,1023.53
2023-01-23T10:16:09.841Z,1023.51
2023-01-23T10:17:09.880Z,1023.54
2023-01-23T10:18:09.796Z,1023.56
2023-01-23T10:19:10.781Z,1023.57
2023-01-23T10:20:09.896Z,1023.55
2023-01-23T10:21:09.765Z,1023.46
2023-01-23T10:22:19.633Z,1023.44
2023-01-23T10:23:10.751Z,1023.46
2023-01-23T10:24:09.716Z,1023.47
2023-01-23T10:25:09.750Z,1023.44
2023-01-23T10:26:09.722Z,1023.43
2023-01-23T10:27:09.713Z,1023.45
2023-01-23T10:28:10.845Z,1023.40
2023-01-23T10:29:09.659Z,1023.37
2023-01-23T10:30:10.669Z,1023.46
2023-01-23T10:31:09.723Z,1023.42
2023-01-23T10:32:09.633Z,1023.35
2023-01-23T10:33:09.681Z,1023.34
2023-01-23T10:34:09.647Z,1023.42
2023-01-23T10:35:10.050Z,1023.35
2023-01-23T10:36:11.033Z,1023.41
2023-01-23T10:37:09.585Z,1023.39
2023-01-23T10:38:09.584Z,1023.42
2023-01-23T10:39:09.597Z,1023.44
2023-01-23T10:40:09.575Z,1023.40
2023-01-23T10:41:09.545Z,1023.34
2023-01-23T10:42:09.561Z,1023.38
2023-01-23T10:43:09.546Z,1023.40
2023-01-23T10:44:09.516Z,1023.38
2023-01-23T10:45:09.518Z,1023.47
2023-01-23T10:46:09.555Z,1023.45
2023-01-23T10:47:09.465Z,1023.42
2023-01-23T10:48:16.079Z,1023.42
2023-01-23T10:49:10.480Z,1023.39
2023-01-23T10:50:09.456Z,1023.36
2023-01-23T10:51:09.523Z,1023.35
2023-01-23T10:52:10.539Z,1023.42
2023-01-23T10:53:09.423Z,1023.45
2023-01-23T10:54:11.355Z,1023.36
2023-01-23T10:55:10.403Z,1023.40
2023-01-23T10:56:09.375Z,1023.35
2023-01-23T10:57:09.385Z,1023.46
2023-01-23T10:58:09.391Z,1023.40
2023-01-23T10:59:09.337Z,1023.45
2023-01-23T11:00:09.326Z,1023.48
2023-01-23T11:01:10.410Z,1023.47
2023-01-23T11:02:09.521Z,1023.41
2023-01-23T11:03:09.435Z,1023.36
2023-01-23T11:04:09.292Z,1023.42
2023-01-23T11:05:09.290Z,1023.42
2023-01-23T11:06:09.269Z,1023.36
2023-01-23T11:07:10.273Z,1023.35
2023-01-23T11:08:10.360Z,1023.38
2023-01-23T11:09:09.257Z,1023.42
2023-01-23T11:10:09.222Z,1023.38
2023-01-23T11:11:09.225Z,1023.37
2023-01-23T11:12:09.213Z,1023.37
2023-01-23T11:13:09.201Z,1023.41
2023-01-23T11:14:09.215Z,1023.45
2023-01-23T11:15:09.156Z,1023.39
2023-01-23T11:16:09.261Z,1023.36
2023-01-23T11:17:09.136Z,1023.36
2023-01-23T11:18:09.121Z,1023.42
2023-01-23T11:19:10.138Z,1023.39
2023-01-23T11:20:09.121Z,1023.31
2023-01-23T11:21:09.143Z,1023.36
2023-01-23T11:22:09.097Z,1023.37
2023-01-23T11:23:09.121Z,1023.33
2023-01-23T11:24:09.235Z,1023.32
2023-01-23T11:25:09.067Z,1023.36
2023-01-23T11:26:09.096Z,1023.44
2023-01-23T11:27:10.026Z,1023.46
2023-01-23T11:28:09.037Z,1023.39
2023-01-23T11:29:10.025Z,1023.36
2023-01-23T11:30:10.014Z,1023.48
2023-01-23T11:31:14.667Z,1023.41
2023-01-23T11:32:10.125Z,1023.34
2023-01-23T11:33:09.004Z,1023.30
2023-01-23T11:34:08.968Z,1023.39
2023-01-23T11:35:08.981Z,1023.30
2023-01-23T11:36:08.960Z,1023.39
2023-01-23T11:37:08.935Z,1023.44
2023-01-23T11:38:09.986Z,1023.42
2023-01-23T11:39:09.938Z,1023.38
2023-01-23T11:40:09.009Z,1023.39
2023-01-23T11:41:08.890Z,1023.36
2023-01-23T11:42:08.881Z,1023.34
2023-01-23T11:43:08.868Z,1023.35
2023-01-23T11:44:10.032Z,1023.26
2023-01-23T11:45:08.877Z,1023.30
2023-01-23T11:46:08.873Z,1023.35
2023-01-23T11:47:09.815Z,1023.26
2023-01-23T11:48:09.824Z,1023.28
2023-01-23T11:49:08.820Z,1023.21
2023-01-23T11:50:08.818Z,1023.24
2023-01-23T11:51:08.839Z,1023.26
2023-01-23T11:52:08.764Z,1023.22
2023-01-23T11:53:08.763Z,1023.26
2023-01-23T11:54:08.774Z,1023.24
2023-01-23T11:55:08.759Z,1023.28
2023-01-23T11:56:08.837Z,1023.19
2023-01-23T11:57:08.698Z,1023.22
2023-01-23T11:58:09.737Z,1023.23
2023-01-23T11:59:08.722Z,1023.24
2023-01-23T12:00:08.687Z,1023.23
2023-01-23T12:01:09.702Z,1023.28
2023-01-23T12:02:08.670Z,1023.24
2023-01-23T12:03:08.631Z,1023.25
2023-01-23T12:04:08.754Z,1023.28
2023-01-23T12:05:09.631Z,1023.35
2023-01-23T12:07:09.633Z,1023.25